sensor_id;sensor_type;location;lat;lon;timestamp;P1;durP1;ratioP1;P2;durP2;ratioP2
19225;SDS011;9747;48.536;12.522;2023-02-28T00:00:13;1.50;;;1.40;;
19225;SDS011;9747;48.536;12.522;2023-02-28T00:02:42;1.88;;;1.77;;
19225;SDS011;9747;48.536;12.522;2023-02-28T00:05:12;1.77;;;1.67;;
19225;SDS011;9747;48.536;12.522;2023-02-28T00:07:44;1.80;;;1.70;;
19225;SDS011;9747;48.536;12.522;2023-02-28T00:10:13;1.70;;;1.60;;
19225;SDS011;9747;48.536;12.522;2023-02-28T00:12:44;1.40;;;1.40;;
19225;SDS011;9747;48.536;12.522;2023-02-28T00:15:11;1.50;;;1.40;;
19225;SDS011;9747;48.536;12.522;2023-02-28T00:17:39;1.75;;;1.67;;
19225;SDS011;9747;48.536;12.522;2023-02-28T00:20:07;1.60;;;1.50;;
19225;SDS011;9747;48.536;12.522;2023-02-28T00:22:38;1.92;;;1.50;;
19225;SDS011;9747;48.536;12.522;2023-02-28T00:25:07;1.55;;;1.48;;
19225;SDS011;9747;48.536;12.522;2023-02-28T00:27:37;2.10;;;1.92;;
19225;SDS011;9747;48.536;12.522;2023-02-28T00:30:05;1.40;;;1.40;;
19225;SDS011;9747;48.536;12.522;2023-02-28T00:32:36;1.55;;;1.45;;
19225;SDS011;9747;48.536;12.522;2023-02-28T00:35:04;1.40;;;1.40;;
19225;SDS011;9747;48.536;12.522;2023-02-28T00:37:33;1.75;;;1.60;;
19225;SDS011;9747;48.536;12.522;2023-02-28T00:40:02;1.50;;;1.50;;
19225;SDS011;9747;48.536;12.522;2023-02-28T00:42:32;1.95;;;1.70;;
19225;SDS011;9747;48.536;12.522;2023-02-28T00:45:00;1.63;;;1.52;;
19225;SDS011;9747;48.536;12.522;2023-02-28T00:47:29;1.58;;;1.50;;
19225;SDS011;9747;48.536;12.522;2023-02-28T00:49:57;1.52;;;1.48;;
19225;SDS011;9747;48.536;12.522;2023-02-28T00:52:24;1.60;;;1.50;;
19225;SDS011;9747;48.536;12.522;2023-02-28T00:54:53;1.65;;;1.55;;
19225;SDS011;9747;48.536;12.522;2023-02-28T00:57:22;1.75;;;1.65;;
19225;SDS011;9747;48.536;12.522;2023-02-28T00:59:50;1.63;;;1.52;;
19225;SDS011;9747;48.536;12.522;2023-02-28T01:02:20;1.70;;;1.60;;
19225;SDS011;9747;48.536;12.522;2023-02-28T01:04:48;1.80;;;1.70;;
19225;SDS011;9747;48.536;12.522;2023-02-28T01:07:15;1.67;;;1.58;;
19225;SDS011;9747;48.536;12.522;2023-02-28T01:09:43;1.52;;;1.45;;
19225;SDS011;9747;48.536;12.522;2023-02-28T01:12:11;1.80;;;1.60;;
19225;SDS011;9747;48.536;12.522;2023-02-28T01:14:39;1.75;;;1.65;;
19225;SDS011;9747;48.536;12.522;2023-02-28T01:17:07;1.52;;;1.42;;
19225;SDS011;9747;48.536;12.522;2023-02-28T01:19:35;1.58;;;1.50;;
19225;SDS011;9747;48.536;12.522;2023-02-28T01:22:03;1.52;;;1.42;;
19225;SDS011;9747;48.536;12.522;2023-02-28T01:24:33;2.17;;;1.92;;
19225;SDS011;9747;48.536;12.522;2023-02-28T01:27:01;1.85;;;1.75;;
19225;SDS011;9747;48.536;12.522;2023-02-28T01:29:28;1.70;;;1.60;;
19225;SDS011;9747;48.536;12.522;2023-02-28T01:31:57;1.80;;;1.70;;
19225;SDS011;9747;48.536;12.522;2023-02-28T01:34:25;1.70;;;1.60;;
19225;SDS011;9747;48.536;12.522;2023-02-28T01:36:52;1.55;;;1.45;;
19225;SDS011;9747;48.536;12.522;2023-02-28T01:39:20;1.75;;;1.65;;
19225;SDS011;9747;48.536;12.522;2023-02-28T01:41:49;1.77;;;1.60;;
19225;SDS011;9747;48.536;12.522;2023-02-28T01:47:27;1.60;;;1.50;;
19225;SDS011;9747;48.536;12.522;2023-02-28T01:49:57;1.52;;;1.42;;
19225;SDS011;9747;48.536;12.522;2023-02-28T01:52:25;1.50;;;1.50;;
19225;SDS011;9747;48.536;12.522;2023-02-28T01:54:54;1.65;;;1.55;;
19225;SDS011;9747;48.536;12.522;2023-02-28T01:57:25;2.20;;;2.10;;
19225;SDS011;9747;48.536;12.522;2023-02-28T01:59:57;1.60;;;1.50;;
19225;SDS011;9747;48.536;12.522;2023-02-28T02:02:39;1.90;;;1.80;;
19225;SDS011;9747;48.536;12.522;2023-02-28T02:05:09;1.80;;;1.70;;
19225;SDS011;9747;48.536;12.522;2023-02-28T02:07:39;1.60;;;1.50;;
19225;SDS011;9747;48.536;12.522;2023-02-28T02:10:11;2.00;;;1.80;;
19225;SDS011;9747;48.536;12.522;2023-02-28T02:12:47;1.65;;;1.60;;
19225;SDS011;9747;48.536;12.522;2023-02-28T02:15:41;1.67;;;1.60;;
19225;SDS011;9747;48.536;12.522;2023-02-28T02:18:16;1.77;;;1.60;;
19225;SDS011;9747;48.536;12.522;2023-02-28T02:21:02;1.90;;;1.80;;
19225;SDS011;9747;48.536;12.522;2023-02-28T02:23:58;1.85;;;1.75;;
19225;SDS011;9747;48.536;12.522;2023-02-28T02:29:58;2.55;;;1.63;;
19225;SDS011;9747;48.536;12.522;2023-02-28T02:36:09;1.70;;;1.60;;
19225;SDS011;9747;48.536;12.522;2023-02-28T02:38:42;1.70;;;1.60;;
19225;SDS011;9747;48.536;12.522;2023-02-28T02:41:17;2.00;;;1.90;;
19225;SDS011;9747;48.536;12.522;2023-02-28T02:43:50;1.75;;;1.65;;
19225;SDS011;9747;48.536;12.522;2023-02-28T02:46:21;1.67;;;1.58;;
19225;SDS011;9747;48.536;12.522;2023-02-28T02:48:57;2.03;;;1.92;;
19225;SDS011;9747;48.536;12.522;2023-02-28T02:51:29;1.90;;;1.80;;
19225;SDS011;9747;48.536;12.522;2023-02-28T02:53:59;1.52;;;1.52;;
19225;SDS011;9747;48.536;12.522;2023-02-28T02:56:32;1.77;;;1.67;;
19225;SDS011;9747;48.536;12.522;2023-02-28T02:59:01;1.90;;;1.80;;
19225;SDS011;9747;48.536;12.522;2023-02-28T03:01:31;1.90;;;1.80;;
19225;SDS011;9747;48.536;12.522;2023-02-28T03:04:00;1.92;;;1.77;;
19225;SDS011;9747;48.536;12.522;2023-02-28T03:06:33;1.90;;;1.80;;
19225;SDS011;9747;48.536;12.522;2023-02-28T03:09:01;1.63;;;1.52;;
19225;SDS011;9747;48.536;12.522;2023-02-28T03:11:29;1.90;;;1.80;;
19225;SDS011;9747;48.536;12.522;2023-02-28T03:14:01;1.60;;;1.50;;
19225;SDS011;9747;48.536;12.522;2023-02-28T03:16:43;1.92;;;1.83;;
19225;SDS011;9747;48.536;12.522;2023-02-28T03:19:45;1.85;;;1.75;;
19225;SDS011;9747;48.536;12.522;2023-02-28T03:22:23;2.20;;;2.10;;
19225;SDS011;9747;48.536;12.522;2023-02-28T03:25:05;2.17;;;1.98;;
19225;SDS011;9747;48.536;12.522;2023-02-28T03:27:36;2.08;;;1.88;;
19225;SDS011;9747;48.536;12.522;2023-02-28T03:30:09;2.10;;;2.00;;
19225;SDS011;9747;48.536;12.522;2023-02-28T03:32:40;2.38;;;2.00;;
19225;SDS011;9747;48.536;12.522;2023-02-28T03:35:16;1.80;;;1.70;;
19225;SDS011;9747;48.536;12.522;2023-02-28T03:37:49;2.15;;;2.05;;
19225;SDS011;9747;48.536;12.522;2023-02-28T03:40:20;2.00;;;1.90;;
19225;SDS011;9747;48.536;12.522;2023-02-28T03:42:52;1.92;;;1.83;;
19225;SDS011;9747;48.536;12.522;2023-02-28T03:45:23;2.00;;;1.90;;
19225;SDS011;9747;48.536;12.522;2023-02-28T03:47:53;2.10;;;2.00;;
19225;SDS011;9747;48.536;12.522;2023-02-28T03:50:24;2.10;;;2.00;;
19225;SDS011;9747;48.536;12.522;2023-02-28T03:52:57;2.35;;;2.15;;
19225;SDS011;9747;48.536;12.522;2023-02-28T03:55:30;2.03;;;1.92;;
19225;SDS011;9747;48.536;12.522;2023-02-28T03:58:01;2.38;;;2.17;;
19225;SDS011;9747;48.536;12.522;2023-02-28T04:00:35;2.20;;;2.10;;
19225;SDS011;9747;48.536;12.522;2023-02-28T04:03:04;2.08;;;1.83;;
19225;SDS011;9747;48.536;12.522;2023-02-28T04:05:32;2.00;;;1.90;;
19225;SDS011;9747;48.536;12.522;2023-02-28T04:08:05;2.22;;;2.03;;
19225;SDS011;9747;48.536;12.522;2023-02-28T04:10:33;2.25;;;2.15;;
19225;SDS011;9747;48.536;12.522;2023-02-28T04:13:01;2.80;;;2.30;;
19225;SDS011;9747;48.536;12.522;2023-02-28T04:15:28;2.08;;;1.98;;
19225;SDS011;9747;48.536;12.522;2023-02-28T04:17:57;2.40;;;2.20;;
19225;SDS011;9747;48.536;12.522;2023-02-28T04:20:24;2.33;;;2.13;;
19225;SDS011;9747;48.536;12.522;2023-02-28T04:22:52;2.03;;;1.90;;
19225;SDS011;9747;48.536;12.522;2023-02-28T04:25:20;2.38;;;2.20;;
19225;SDS011;9747;48.536;12.522;2023-02-28T04:27:48;2.22;;;2.00;;
19225;SDS011;9747;48.536;12.522;2023-02-28T04:30:16;2.38;;;2.17;;
19225;SDS011;9747;48.536;12.522;2023-02-28T04:32:43;2.00;;;1.90;;
19225;SDS011;9747;48.536;12.522;2023-02-28T04:35:11;2.78;;;2.58;;
19225;SDS011;9747;48.536;12.522;2023-02-28T04:37:38;2.22;;;2.13;;
19225;SDS011;9747;48.536;12.522;2023-02-28T04:40:06;2.50;;;2.30;;
19225;SDS011;9747;48.536;12.522;2023-02-28T04:42:37;2.05;;;1.95;;
19225;SDS011;9747;48.536;12.522;2023-02-28T04:45:04;2.13;;;2.00;;
19225;SDS011;9747;48.536;12.522;2023-02-28T04:47:35;2.08;;;1.98;;
19225;SDS011;9747;48.536;12.522;2023-02-28T04:50:02;1.92;;;1.83;;
19225;SDS011;9747;48.536;12.522;2023-02-28T04:52:31;2.10;;;2.00;;
19225;SDS011;9747;48.536;12.522;2023-02-28T04:54:58;2.40;;;2.20;;
19225;SDS011;9747;48.536;12.522;2023-02-28T04:57:26;2.30;;;2.20;;
19225;SDS011;9747;48.536;12.522;2023-02-28T04:59:56;2.10;;;2.00;;
19225;SDS011;9747;48.536;12.522;2023-02-28T05:02:23;2.47;;;2.08;;
19225;SDS011;9747;48.536;12.522;2023-02-28T05:04:51;2.78;;;2.58;;
19225;SDS011;9747;48.536;12.522;2023-02-28T05:07:18;2.90;;;2.40;;
19225;SDS011;9747;48.536;12.522;2023-02-28T05:09:46;2.35;;;2.17;;
19225;SDS011;9747;48.536;12.522;2023-02-28T05:12:14;3.45;;;2.53;;
19225;SDS011;9747;48.536;12.522;2023-02-28T05:14:41;2.90;;;2.13;;
19225;SDS011;9747;48.536;12.522;2023-02-28T05:17:10;2.60;;;2.38;;
19225;SDS011;9747;48.536;12.522;2023-02-28T05:19:38;3.25;;;2.40;;
19225;SDS011;9747;48.536;12.522;2023-02-28T05:22:11;3.35;;;2.25;;
19225;SDS011;9747;48.536;12.522;2023-02-28T05:24:41;4.07;;;2.35;;
19225;SDS011;9747;48.536;12.522;2023-02-28T05:27:09;2.60;;;2.40;;
19225;SDS011;9747;48.536;12.522;2023-02-28T05:29:37;3.30;;;2.60;;
19225;SDS011;9747;48.536;12.522;2023-02-28T05:32:09;4.72;;;2.75;;
19225;SDS011;9747;48.536;12.522;2023-02-28T05:34:38;2.75;;;2.38;;
19225;SDS011;9747;48.536;12.522;2023-02-28T05:37:07;4.35;;;2.40;;
19225;SDS011;9747;48.536;12.522;2023-02-28T05:39:39;2.60;;;2.40;;
19225;SDS011;9747;48.536;12.522;2023-02-28T05:42:07;2.88;;;2.33;;
19225;SDS011;9747;48.536;12.522;2023-02-28T05:44:35;3.17;;;2.80;;
19225;SDS011;9747;48.536;12.522;2023-02-28T05:47:02;2.50;;;2.30;;
19225;SDS011;9747;48.536;12.522;2023-02-28T05:49:31;4.90;;;2.80;;
19225;SDS011;9747;48.536;12.522;2023-02-28T05:51:59;3.60;;;2.55;;
19225;SDS011;9747;48.536;12.522;2023-02-28T05:54:27;4.95;;;2.80;;
19225;SDS011;9747;48.536;12.522;2023-02-28T05:56:54;4.82;;;2.70;;
19225;SDS011;9747;48.536;12.522;2023-02-28T05:59:22;3.28;;;2.28;;
19225;SDS011;9747;48.536;12.522;2023-02-28T06:01:49;4.20;;;2.80;;
19225;SDS011;9747;48.536;12.522;2023-02-28T06:04:19;4.15;;;2.95;;
19225;SDS011;9747;48.536;12.522;2023-02-28T06:06:48;3.88;;;2.95;;
19225;SDS011;9747;48.536;12.522;2023-02-28T06:09:17;5.80;;;3.33;;
19225;SDS011;9747;48.536;12.522;2023-02-28T06:11:45;5.53;;;2.63;;
19225;SDS011;9747;48.536;12.522;2023-02-28T06:14:14;3.25;;;2.95;;
19225;SDS011;9747;48.536;12.522;2023-02-28T06:16:43;6.22;;;2.92;;
19225;SDS011;9747;48.536;12.522;2023-02-28T06:19:10;4.50;;;2.90;;
19225;SDS011;9747;48.536;12.522;2023-02-28T06:21:39;4.72;;;2.90;;
19225;SDS011;9747;48.536;12.522;2023-02-28T06:24:08;6.25;;;2.72;;
19225;SDS011;9747;48.536;12.522;2023-02-28T06:26:35;4.15;;;3.17;;
19225;SDS011;9747;48.536;12.522;2023-02-28T06:29:03;3.20;;;2.50;;
19225;SDS011;9747;48.536;12.522;2023-02-28T06:31:30;4.40;;;2.95;;
19225;SDS011;9747;48.536;12.522;2023-02-28T06:33:58;3.67;;;3.17;;
19225;SDS011;9747;48.536;12.522;2023-02-28T06:36:25;4.35;;;3.22;;
19225;SDS011;9747;48.536;12.522;2023-02-28T06:38:53;4.55;;;3.03;;
19225;SDS011;9747;48.536;12.522;2023-02-28T06:41:23;5.38;;;3.38;;
19225;SDS011;9747;48.536;12.522;2023-02-28T06:43:52;3.55;;;2.63;;
19225;SDS011;9747;48.536;12.522;2023-02-28T06:46:20;4.85;;;3.42;;
19225;SDS011;9747;48.536;12.522;2023-02-28T06:48:47;4.88;;;3.10;;
19225;SDS011;9747;48.536;12.522;2023-02-28T06:51:16;4.05;;;3.40;;
19225;SDS011;9747;48.536;12.522;2023-02-28T06:53:45;4.57;;;3.70;;
19225;SDS011;9747;48.536;12.522;2023-02-28T06:56:13;4.13;;;3.72;;
19225;SDS011;9747;48.536;12.522;2023-02-28T06:58:47;3.70;;;3.20;;
19225;SDS011;9747;48.536;12.522;2023-02-28T07:01:16;5.15;;;3.72;;
19225;SDS011;9747;48.536;12.522;2023-02-28T07:03:44;4.75;;;3.53;;
19225;SDS011;9747;48.536;12.522;2023-02-28T07:06:12;5.13;;;3.40;;
19225;SDS011;9747;48.536;12.522;2023-02-28T07:08:39;3.92;;;3.45;;
19225;SDS011;9747;48.536;12.522;2023-02-28T07:11:06;3.88;;;3.45;;
19225;SDS011;9747;48.536;12.522;2023-02-28T07:13:34;3.90;;;3.50;;
19225;SDS011;9747;48.536;12.522;2023-02-28T07:16:04;4.40;;;3.50;;
19225;SDS011;9747;48.536;12.522;2023-02-28T07:18:34;3.90;;;3.50;;
19225;SDS011;9747;48.536;12.522;2023-02-28T07:21:02;4.25;;;3.30;;
19225;SDS011;9747;48.536;12.522;2023-02-28T07:23:29;4.20;;;3.25;;
19225;SDS011;9747;48.536;12.522;2023-02-28T07:25:57;3.72;;;3.33;;
19225;SDS011;9747;48.536;12.522;2023-02-28T07:28:25;4.45;;;3.30;;
19225;SDS011;9747;48.536;12.522;2023-02-28T07:30:52;4.00;;;3.63;;
19225;SDS011;9747;48.536;12.522;2023-02-28T07:33:21;3.63;;;2.90;;
19225;SDS011;9747;48.536;12.522;2023-02-28T07:35:49;3.53;;;3.20;;
19225;SDS011;9747;48.536;12.522;2023-02-28T07:38:16;3.58;;;3.05;;
19225;SDS011;9747;48.536;12.522;2023-02-28T07:40:44;3.22;;;2.95;;
19225;SDS011;9747;48.536;12.522;2023-02-28T07:43:11;4.35;;;3.20;;
19225;SDS011;9747;48.536;12.522;2023-02-28T07:45:39;3.75;;;3.38;;
19225;SDS011;9747;48.536;12.522;2023-02-28T07:48:06;4.00;;;3.05;;
19225;SDS011;9747;48.536;12.522;2023-02-28T07:50:36;3.70;;;3.40;;
19225;SDS011;9747;48.536;12.522;2023-02-28T07:53:03;3.35;;;3.05;;
19225;SDS011;9747;48.536;12.522;2023-02-28T07:55:31;3.92;;;3.38;;
19225;SDS011;9747;48.536;12.522;2023-02-28T07:57:59;3.40;;;3.10;;
19225;SDS011;9747;48.536;12.522;2023-02-28T08:00:26;3.88;;;3.45;;
19225;SDS011;9747;48.536;12.522;2023-02-28T08:02:56;3.55;;;3.03;;
19225;SDS011;9747;48.536;12.522;2023-02-28T08:05:24;3.42;;;3.13;;
19225;SDS011;9747;48.536;12.522;2023-02-28T08:07:53;3.83;;;3.40;;
19225;SDS011;9747;48.536;12.522;2023-02-28T08:10:20;4.50;;;3.47;;
19225;SDS011;9747;48.536;12.522;2023-02-28T08:12:48;3.90;;;3.50;;
19225;SDS011;9747;48.536;12.522;2023-02-28T08:15:16;3.83;;;3.17;;
19225;SDS011;9747;48.536;12.522;2023-02-28T08:17:44;4.90;;;3.47;;
19225;SDS011;9747;48.536;12.522;2023-02-28T08:20:11;3.40;;;3.08;;
19225;SDS011;9747;48.536;12.522;2023-02-28T08:22:39;3.75;;;3.15;;
19225;SDS011;9747;48.536;12.522;2023-02-28T08:25:08;3.17;;;2.80;;
19225;SDS011;9747;48.536;12.522;2023-02-28T08:27:36;3.72;;;3.10;;
19225;SDS011;9747;48.536;12.522;2023-02-28T08:30:04;3.58;;;3.00;;
19225;SDS011;9747;48.536;12.522;2023-02-28T08:32:33;3.63;;;2.90;;
19225;SDS011;9747;48.536;12.522;2023-02-28T08:35:01;3.92;;;3.22;;
19225;SDS011;9747;48.536;12.522;2023-02-28T08:37:29;3.80;;;3.22;;
19225;SDS011;9747;48.536;12.522;2023-02-28T08:39:56;2.85;;;2.65;;
19225;SDS011;9747;48.536;12.522;2023-02-28T08:42:25;3.60;;;3.30;;
19225;SDS011;9747;48.536;12.522;2023-02-28T08:44:53;3.42;;;3.10;;
19225;SDS011;9747;48.536;12.522;2023-02-28T08:47:21;4.88;;;3.08;;
19225;SDS011;9747;48.536;12.522;2023-02-28T08:49:48;3.42;;;3.13;;
19225;SDS011;9747;48.536;12.522;2023-02-28T08:52:16;3.95;;;3.25;;
19225;SDS011;9747;48.536;12.522;2023-02-28T08:54:43;3.30;;;2.97;;
19225;SDS011;9747;48.536;12.522;2023-02-28T08:57:10;3.83;;;2.97;;
19225;SDS011;9747;48.536;12.522;2023-02-28T08:59:40;4.93;;;3.28;;
19225;SDS011;9747;48.536;12.522;2023-02-28T09:02:08;3.22;;;2.92;;
19225;SDS011;9747;48.536;12.522;2023-02-28T09:04:36;4.28;;;3.05;;
19225;SDS011;9747;48.536;12.522;2023-02-28T09:07:03;3.35;;;2.90;;
19225;SDS011;9747;48.536;12.522;2023-02-28T09:09:31;2.97;;;2.78;;
19225;SDS011;9747;48.536;12.522;2023-02-28T09:11:58;3.10;;;2.80;;
19225;SDS011;9747;48.536;12.522;2023-02-28T09:14:26;3.15;;;2.85;;
19225;SDS011;9747;48.536;12.522;2023-02-28T09:16:55;3.60;;;3.30;;
19225;SDS011;9747;48.536;12.522;2023-02-28T09:19:23;3.20;;;2.90;;
19225;SDS011;9747;48.536;12.522;2023-02-28T09:21:50;3.92;;;3.25;;
19225;SDS011;9747;48.536;12.522;2023-02-28T09:24:18;2.78;;;2.58;;
19225;SDS011;9747;48.536;12.522;2023-02-28T09:26:45;2.88;;;2.60;;
19225;SDS011;9747;48.536;12.522;2023-02-28T09:29:13;3.13;;;2.90;;
19225;SDS011;9747;48.536;12.522;2023-02-28T09:31:42;3.05;;;2.70;;
19225;SDS011;9747;48.536;12.522;2023-02-28T09:34:11;3.17;;;2.90;;
19225;SDS011;9747;48.536;12.522;2023-02-28T09:36:39;3.20;;;2.90;;
19225;SDS011;9747;48.536;12.522;2023-02-28T09:39:06;3.05;;;2.80;;
19225;SDS011;9747;48.536;12.522;2023-02-28T09:41:36;2.90;;;2.70;;
19225;SDS011;9747;48.536;12.522;2023-02-28T09:44:13;3.20;;;2.90;;
19225;SDS011;9747;48.536;12.522;2023-02-28T09:46:47;3.10;;;2.80;;
19225;SDS011;9747;48.536;12.522;2023-02-28T09:49:19;3.08;;;2.80;;
19225;SDS011;9747;48.536;12.522;2023-02-28T09:51:54;3.45;;;2.80;;
19225;SDS011;9747;48.536;12.522;2023-02-28T09:54:26;2.80;;;2.60;;
19225;SDS011;9747;48.536;12.522;2023-02-28T09:56:58;3.20;;;2.88;;
19225;SDS011;9747;48.536;12.522;2023-02-28T09:59:42;3.22;;;2.92;;
19225;SDS011;9747;48.536;12.522;2023-02-28T10:02:28;3.28;;;2.60;;
19225;SDS011;9747;48.536;12.522;2023-02-28T10:05:21;2.80;;;2.60;;
19225;SDS011;9747;48.536;12.522;2023-02-28T10:07:55;2.80;;;2.60;;
19225;SDS011;9747;48.536;12.522;2023-02-28T10:10:32;2.80;;;2.50;;
19225;SDS011;9747;48.536;12.522;2023-02-28T10:13:05;3.17;;;2.65;;
19225;SDS011;9747;48.536;12.522;2023-02-28T10:15:39;3.40;;;2.90;;
19225;SDS011;9747;48.536;12.522;2023-02-28T10:18:09;3.10;;;2.80;;
19225;SDS011;9747;48.536;12.522;2023-02-28T10:20:41;2.63;;;2.42;;
19225;SDS011;9747;48.536;12.522;2023-02-28T10:23:12;3.00;;;2.80;;
19225;SDS011;9747;48.536;12.522;2023-02-28T10:25:44;3.15;;;2.90;;
19225;SDS011;9747;48.536;12.522;2023-02-28T10:28:16;3.20;;;2.90;;
19225;SDS011;9747;48.536;12.522;2023-02-28T10:30:45;3.20;;;2.90;;
19225;SDS011;9747;48.536;12.522;2023-02-28T10:33:17;3.05;;;2.80;;
19225;SDS011;9747;48.536;12.522;2023-02-28T10:35:52;3.00;;;2.80;;
19225;SDS011;9747;48.536;12.522;2023-02-28T10:38:21;2.90;;;2.70;;
19225;SDS011;9747;48.536;12.522;2023-02-28T10:40:50;2.90;;;2.58;;
19225;SDS011;9747;48.536;12.522;2023-02-28T10:43:19;3.20;;;2.92;;
19225;SDS011;9747;48.536;12.522;2023-02-28T10:45:55;2.88;;;2.65;;
19225;SDS011;9747;48.536;12.522;2023-02-28T10:48:36;3.00;;;2.80;;
19225;SDS011;9747;48.536;12.522;2023-02-28T10:51:07;3.03;;;2.83;;
19225;SDS011;9747;48.536;12.522;2023-02-28T10:53:37;2.65;;;2.45;;
19225;SDS011;9747;48.536;12.522;2023-02-28T10:56:14;2.60;;;2.47;;
19225;SDS011;9747;48.536;12.522;2023-02-28T10:58:49;2.83;;;2.63;;
19225;SDS011;9747;48.536;12.522;2023-02-28T11:01:21;2.90;;;2.70;;
19225;SDS011;9747;48.536;12.522;2023-02-28T11:03:51;3.17;;;2.88;;
19225;SDS011;9747;48.536;12.522;2023-02-28T11:06:21;3.00;;;2.70;;
19225;SDS011;9747;48.536;12.522;2023-02-28T11:08:51;3.15;;;2.80;;
19225;SDS011;9747;48.536;12.522;2023-02-28T11:11:22;2.88;;;2.67;;
19225;SDS011;9747;48.536;12.522;2023-02-28T11:13:52;3.15;;;2.78;;
19225;SDS011;9747;48.536;12.522;2023-02-28T11:16:22;3.60;;;3.22;;
19225;SDS011;9747;48.536;12.522;2023-02-28T11:19:00;3.20;;;2.90;;
19225;SDS011;9747;48.536;12.522;2023-02-28T11:21:30;3.22;;;2.70;;
19225;SDS011;9747;48.536;12.522;2023-02-28T11:24:01;2.90;;;2.70;;
19225;SDS011;9747;48.536;12.522;2023-02-28T11:26:35;2.85;;;2.65;;
19225;SDS011;9747;48.536;12.522;2023-02-28T11:29:11;3.05;;;2.78;;
19225;SDS011;9747;48.536;12.522;2023-02-28T11:31:49;3.00;;;2.80;;
19225;SDS011;9747;48.536;12.522;2023-02-28T11:34:43;2.88;;;2.67;;
19225;SDS011;9747;48.536;12.522;2023-02-28T11:37:14;2.80;;;2.50;;
19225;SDS011;9747;48.536;12.522;2023-02-28T11:39:45;2.70;;;2.50;;
19225;SDS011;9747;48.536;12.522;2023-02-28T11:45:26;3.00;;;2.70;;
19225;SDS011;9747;48.536;12.522;2023-02-28T11:48:12;3.05;;;2.83;;
19225;SDS011;9747;48.536;12.522;2023-02-28T11:50:50;2.90;;;2.70;;
19225;SDS011;9747;48.536;12.522;2023-02-28T11:53:32;3.38;;;3.05;;
19225;SDS011;9747;48.536;12.522;2023-02-28T11:56:14;2.88;;;2.67;;
19225;SDS011;9747;48.536;12.522;2023-02-28T11:58:51;3.08;;;2.80;;
19225;SDS011;9747;48.536;12.522;2023-02-28T12:04:29;3.10;;;2.80;;
19225;SDS011;9747;48.536;12.522;2023-02-28T12:07:07;3.13;;;2.88;;
19225;SDS011;9747;48.536;12.522;2023-02-28T12:09:44;2.80;;;2.60;;
19225;SDS011;9747;48.536;12.522;2023-02-28T12:12:21;3.03;;;2.83;;
19225;SDS011;9747;48.536;12.522;2023-02-28T12:15:02;2.70;;;2.50;;
19225;SDS011;9747;48.536;12.522;2023-02-28T12:17:47;2.85;;;2.65;;
19225;SDS011;9747;48.536;12.522;2023-02-28T12:20:29;2.90;;;2.70;;
19225;SDS011;9747;48.536;12.522;2023-02-28T12:23:09;3.00;;;2.80;;
19225;SDS011;9747;48.536;12.522;2023-02-28T12:25:53;2.92;;;2.72;;
19225;SDS011;9747;48.536;12.522;2023-02-28T12:28:30;2.72;;;2.53;;
19225;SDS011;9747;48.536;12.522;2023-02-28T12:31:01;3.15;;;2.95;;
19225;SDS011;9747;48.536;12.522;2023-02-28T12:33:35;3.00;;;2.80;;
19225;SDS011;9747;48.536;12.522;2023-02-28T12:36:09;2.60;;;2.40;;
19225;SDS011;9747;48.536;12.522;2023-02-28T12:38:41;2.80;;;2.55;;
19225;SDS011;9747;48.536;12.522;2023-02-28T12:41:13;2.70;;;2.47;;
19225;SDS011;9747;48.536;12.522;2023-02-28T12:43:44;2.63;;;2.40;;
19225;SDS011;9747;48.536;12.522;2023-02-28T12:46:15;3.13;;;2.83;;
19225;SDS011;9747;48.536;12.522;2023-02-28T12:48:48;2.63;;;2.47;;
19225;SDS011;9747;48.536;12.522;2023-02-28T12:51:20;2.65;;;2.50;;
19225;SDS011;9747;48.536;12.522;2023-02-28T12:53:50;2.65;;;2.45;;
19225;SDS011;9747;48.536;12.522;2023-02-28T12:56:32;3.00;;;2.80;;
19225;SDS011;9747;48.536;12.522;2023-02-28T12:59:10;3.40;;;3.10;;
19225;SDS011;9747;48.536;12.522;2023-02-28T13:01:47;3.10;;;2.90;;
19225;SDS011;9747;48.536;12.522;2023-02-28T13:04:32;3.40;;;3.10;;
19225;SDS011;9747;48.536;12.522;2023-02-28T13:07:47;3.15;;;2.95;;
19225;SDS011;9747;48.536;12.522;2023-02-28T13:10:40;2.95;;;2.75;;
19225;SDS011;9747;48.536;12.522;2023-02-28T13:13:15;2.88;;;2.67;;
19225;SDS011;9747;48.536;12.522;2023-02-28T13:15:57;3.45;;;3.15;;
19225;SDS011;9747;48.536;12.522;2023-02-28T13:18:28;3.10;;;2.90;;
19225;SDS011;9747;48.536;12.522;2023-02-28T13:20:58;3.55;;;3.25;;
19225;SDS011;9747;48.536;12.522;2023-02-28T13:23:38;3.55;;;3.30;;
19225;SDS011;9747;48.536;12.522;2023-02-28T13:26:32;3.75;;;3.45;;
19225;SDS011;9747;48.536;12.522;2023-02-28T13:29:51;3.20;;;3.00;;
19225;SDS011;9747;48.536;12.522;2023-02-28T13:32:19;3.83;;;3.13;;
19225;SDS011;9747;48.536;12.522;2023-02-28T13:44:13;3.85;;;3.40;;
19225;SDS011;9747;48.536;12.522;2023-02-28T13:49:49;3.75;;;3.30;;
19225;SDS011;9747;48.536;12.522;2023-02-28T13:52:19;4.68;;;3.30;;
19225;SDS011;9747;48.536;12.522;2023-02-28T13:54:53;4.95;;;3.38;;
19225;SDS011;9747;48.536;12.522;2023-02-28T13:57:59;5.95;;;3.95;;
19225;SDS011;9747;48.536;12.522;2023-02-28T14:00:43;4.53;;;3.70;;
19225;SDS011;9747;48.536;12.522;2023-02-28T14:03:28;5.10;;;3.78;;
19225;SDS011;9747;48.536;12.522;2023-02-28T14:06:09;5.15;;;3.35;;
19225;SDS011;9747;48.536;12.522;2023-02-28T14:08:45;5.40;;;3.72;;
19225;SDS011;9747;48.536;12.522;2023-02-28T14:11:25;6.47;;;4.00;;
19225;SDS011;9747;48.536;12.522;2023-02-28T14:13:56;4.90;;;3.80;;
19225;SDS011;9747;48.536;12.522;2023-02-28T14:16:24;6.20;;;3.42;;
19225;SDS011;9747;48.536;12.522;2023-02-28T14:18:57;5.68;;;3.72;;
19225;SDS011;9747;48.536;12.522;2023-02-28T14:21:27;6.93;;;3.80;;
19225;SDS011;9747;48.536;12.522;2023-02-28T14:24:02;4.95;;;3.90;;
19225;SDS011;9747;48.536;12.522;2023-02-28T14:33:25;6.93;;;3.80;;
19225;SDS011;9747;48.536;12.522;2023-02-28T14:36:16;6.50;;;3.97;;
19225;SDS011;9747;48.536;12.522;2023-02-28T14:38:47;4.60;;;3.58;;
19225;SDS011;9747;48.536;12.522;2023-02-28T14:41:20;5.53;;;3.83;;
19225;SDS011;9747;48.536;12.522;2023-02-28T14:43:56;6.45;;;3.95;;
19225;SDS011;9747;48.536;12.522;2023-02-28T14:46:27;3.97;;;3.58;;
19225;SDS011;9747;48.536;12.522;2023-02-28T14:49:00;5.03;;;3.65;;
19225;SDS011;9747;48.536;12.522;2023-02-28T14:51:29;5.10;;;3.60;;
19225;SDS011;9747;48.536;12.522;2023-02-28T14:53:58;4.15;;;3.50;;
19225;SDS011;9747;48.536;12.522;2023-02-28T14:56:28;4.95;;;3.63;;
19225;SDS011;9747;48.536;12.522;2023-02-28T14:59:01;3.78;;;3.38;;
19225;SDS011;9747;48.536;12.522;2023-02-28T15:01:29;5.45;;;3.38;;
19225;SDS011;9747;48.536;12.522;2023-02-28T15:04:00;4.85;;;3.60;;
19225;SDS011;9747;48.536;12.522;2023-02-28T15:06:31;3.80;;;3.40;;
19225;SDS011;9747;48.536;12.522;2023-02-28T15:09:09;3.80;;;3.20;;
19225;SDS011;9747;48.536;12.522;2023-02-28T15:11:40;4.07;;;3.50;;
19225;SDS011;9747;48.536;12.522;2023-02-28T15:14:13;3.67;;;3.35;;
19225;SDS011;9747;48.536;12.522;2023-02-28T15:16:44;4.97;;;3.50;;
19225;SDS011;9747;48.536;12.522;2023-02-28T15:19:15;3.47;;;3.00;;
19225;SDS011;9747;48.536;12.522;2023-02-28T15:21:49;3.60;;;3.30;;
19225;SDS011;9747;48.536;12.522;2023-02-28T15:24:19;3.60;;;3.25;;
19225;SDS011;9747;48.536;12.522;2023-02-28T15:26:58;4.40;;;3.33;;
19225;SDS011;9747;48.536;12.522;2023-02-28T15:29:32;3.75;;;3.40;;
19225;SDS011;9747;48.536;12.522;2023-02-28T15:32:20;3.15;;;2.83;;
19225;SDS011;9747;48.536;12.522;2023-02-28T15:34:53;3.72;;;3.33;;
19225;SDS011;9747;48.536;12.522;2023-02-28T15:37:28;4.40;;;4.00;;
19225;SDS011;9747;48.536;12.522;2023-02-28T15:40:05;5.25;;;3.17;;
19225;SDS011;9747;48.536;12.522;2023-02-28T15:42:40;4.57;;;3.55;;
19225;SDS011;9747;48.536;12.522;2023-02-28T15:48:04;4.30;;;3.60;;
19225;SDS011;9747;48.536;12.522;2023-02-28T15:50:35;4.55;;;3.33;;
19225;SDS011;9747;48.536;12.522;2023-02-28T15:53:04;5.22;;;3.67;;